createdAt,value
2023-04-15T00:01:49.213Z,6.20
2023-04-15T00:04:16.236Z,6.43
2023-04-15T00:06:43.232Z,5.90
2023-04-15T00:09:10.303Z,8.43
2023-04-15T00:11:37.245Z,6.63
2023-04-15T00:14:04.519Z,7.45
2023-04-15T00:16:31.514Z,6.68
2023-04-15T00:18:58.996Z,9.38
2023-04-15T00:21:27.604Z,10.75
2023-04-15T00:23:54.650Z,9.27
2023-04-15T00:26:21.559Z,9.23
2023-04-15T00:28:50.384Z,6.88
2023-04-15T00:31:17.312Z,7.28
2023-04-15T00:33:44.710Z,7.78
2023-04-15T00:36:11.627Z,8.43
2023-04-15T00:38:39.182Z,8.23
2023-04-15T00:41:06.189Z,7.47
2023-04-15T00:43:33.069Z,9.48
2023-04-15T00:46:00.907Z,7.50
2023-04-15T00:48:28.666Z,11.07
2023-04-15T00:50:55.508Z,10.25
2023-04-15T00:53:22.375Z,13.98
2023-04-15T00:55:49.723Z,10.50
2023-04-15T00:58:17.301Z,7.80
2023-04-15T01:00:44.548Z,11.38
2023-04-15T01:03:11.843Z,11.45
2023-04-15T01:05:39.307Z,7.85
2023-04-15T01:08:06.674Z,11.73
2023-04-15T01:10:33.927Z,10.40
2023-04-15T01:13:01.326Z,9.90
2023-04-15T01:15:28.284Z,10.25
2023-04-15T01:17:55.272Z,7.93
2023-04-15T01:20:22.275Z,10.88
2023-04-15T01:22:50.110Z,12.30
2023-04-15T01:25:27.190Z,10.18
2023-04-15T01:27:54.169Z,14.30
2023-04-15T01:30:21.823Z,13.43
2023-04-15T01:32:48.683Z,13.00
2023-04-15T01:35:15.610Z,12.27
2023-04-15T01:37:42.883Z,11.02
2023-04-15T01:40:10.088Z,10.23
2023-04-15T01:42:37.723Z,10.63
2023-04-15T01:45:05.338Z,9.32
2023-04-15T01:47:32.255Z,9.68
2023-04-15T01:49:59.141Z,9.57
2023-04-15T01:52:26.223Z,8.85
2023-04-15T01:54:53.024Z,14.15
2023-04-15T01:57:19.887Z,8.27
2023-04-15T01:59:47.007Z,9.80
2023-04-15T02:02:15.563Z,7.72
2023-04-15T02:04:42.595Z,7.88
2023-04-15T02:07:09.585Z,8.77
2023-04-15T02:09:36.421Z,9.65
2023-04-15T02:12:03.293Z,8.98
2023-04-15T02:14:30.794Z,8.50
2023-04-15T02:16:57.729Z,7.90
2023-04-15T02:19:25.244Z,11.55
2023-04-15T02:21:52.236Z,9.93
2023-04-15T02:24:19.075Z,9.27
2023-04-15T02:26:46.649Z,9.38
2023-04-15T02:29:13.626Z,8.55
2023-04-15T02:31:42.262Z,8.95
2023-04-15T02:34:09.243Z,8.68
2023-04-15T02:36:36.218Z,8.15
2023-04-15T02:39:05.299Z,8.60
2023-04-15T02:41:32.144Z,11.00
2023-04-15T02:43:59.294Z,10.00
2023-04-15T02:46:27.472Z,9.30
2023-04-15T02:48:54.452Z,9.07
2023-04-15T02:51:23.327Z,8.82
2023-04-15T02:53:51.083Z,7.30
2023-04-15T02:56:19.515Z,9.07
2023-04-15T02:58:46.822Z,8.15
2023-04-15T03:01:13.842Z,9.95
2023-04-15T03:03:41.747Z,9.60
2023-04-15T03:06:09.145Z,10.30
2023-04-15T03:08:37.101Z,13.43
2023-04-15T03:11:04.914Z,15.45
2023-04-15T03:13:33.186Z,10.02
2023-04-15T03:16:06.667Z,10.27
2023-04-15T03:18:33.701Z,10.52
2023-04-15T03:21:03.193Z,10.63
2023-04-15T03:26:04.559Z,9.75
2023-04-15T03:28:33.166Z,10.48
2023-04-15T03:31:01.190Z,13.75
2023-04-15T03:33:28.594Z,12.77
2023-04-15T03:35:55.653Z,10.52
2023-04-15T03:38:22.546Z,12.98
2023-04-15T03:40:49.384Z,14.18
2023-04-15T03:43:16.599Z,15.45
2023-04-15T03:45:43.652Z,9.93
2023-04-15T03:48:16.442Z,11.60
2023-04-15T03:50:44.607Z,12.68
2023-04-15T03:53:11.510Z,13.23
2023-04-15T03:55:38.333Z,12.98
2023-04-15T03:58:05.239Z,12.40
2023-04-15T04:00:32.212Z,12.85
2023-04-15T04:02:59.294Z,13.57
2023-04-15T04:05:26.339Z,12.48
2023-04-15T04:07:53.315Z,15.60
2023-04-15T04:10:20.195Z,13.60
2023-04-15T04:12:47.136Z,13.23
2023-04-15T04:15:14.025Z,14.63
2023-04-15T04:17:40.893Z,15.77
2023-04-15T04:20:08.393Z,12.70
2023-04-15T04:22:41.315Z,14.13
2023-04-15T04:25:08.771Z,13.65
2023-04-15T04:27:36.070Z,16.33
2023-04-15T04:30:03.140Z,15.15
2023-04-15T04:32:30.314Z,14.65
2023-04-15T04:34:57.160Z,16.00
2023-04-15T04:37:24.704Z,14.88
2023-04-15T04:39:51.644Z,14.73
2023-04-15T04:42:18.582Z,16.50
2023-04-15T04:44:45.388Z,16.52
2023-04-15T04:47:12.269Z,18.15
2023-04-15T04:49:39.372Z,19.83
2023-04-15T04:52:06.600Z,16.52
2023-04-15T04:54:33.758Z,17.55
2023-04-15T04:57:00.898Z,16.13
2023-04-15T04:59:28.196Z,19.05
2023-04-15T05:01:55.109Z,17.85
2023-04-15T05:04:22.420Z,20.67
2023-04-15T05:06:49.202Z,23.30
2023-04-15T05:09:16.160Z,18.35
2023-04-15T05:11:42.967Z,18.58
2023-04-15T05:14:10.017Z,19.63
2023-04-15T05:16:36.851Z,22.35
2023-04-15T05:19:03.794Z,21.70
2023-04-15T05:21:31.704Z,17.67
2023-04-15T05:23:58.559Z,19.85
2023-04-15T05:26:25.464Z,16.02
2023-04-15T05:28:52.326Z,19.25
2023-04-15T05:31:19.497Z,18.65
2023-04-15T05:33:46.930Z,16.77
2023-04-15T05:36:13.899Z,16.58
2023-04-15T05:38:41.050Z,19.80
2023-04-15T05:41:07.922Z,18.75
2023-04-15T05:43:34.797Z,22.35
2023-04-15T05:46:01.657Z,17.63
2023-04-15T05:48:28.571Z,22.70
2023-04-15T05:50:55.503Z,15.20
2023-04-15T05:53:22.442Z,23.13
2023-04-15T05:55:49.304Z,20.52
2023-04-15T05:58:16.237Z,21.30
2023-04-15T06:00:43.888Z,18.15
2023-04-15T06:03:11.871Z,20.77
2023-04-15T06:05:38.788Z,20.13
2023-04-15T06:08:05.901Z,20.98
2023-04-15T06:10:36.596Z,24.98
2023-04-15T06:13:04.333Z,18.27
2023-04-15T06:15:31.769Z,20.25
2023-04-15T06:17:59.153Z,19.63
2023-04-15T06:20:26.220Z,21.17
2023-04-15T06:22:53.161Z,16.63
2023-04-15T06:25:19.978Z,17.70
2023-04-15T06:27:47.250Z,19.70
2023-04-15T06:30:14.334Z,18.90
2023-04-15T06:32:41.658Z,19.00
2023-04-15T06:35:10.151Z,20.42
2023-04-15T06:37:36.963Z,21.98
2023-04-15T06:40:05.237Z,20.75
2023-04-15T06:42:32.387Z,18.92
2023-04-15T06:44:59.276Z,17.55
2023-04-15T06:47:26.229Z,19.38
2023-04-15T06:49:53.154Z,17.58
2023-04-15T06:52:22.928Z,15.38
2023-04-15T06:54:49.759Z,17.20
2023-04-15T06:57:16.659Z,19.88
2023-04-15T06:59:43.560Z,16.52
2023-04-15T07:02:13.302Z,16.77
2023-04-15T07:04:40.483Z,16.60
2023-04-15T07:07:08.311Z,15.40
2023-04-15T07:09:35.481Z,19.13
2023-04-15T07:12:02.800Z,21.13
2023-04-15T07:14:30.169Z,14.50
2023-04-15T07:16:57.657Z,18.02
2023-04-15T07:19:24.638Z,14.60
2023-04-15T07:21:51.573Z,18.63
2023-04-15T07:24:20.097Z,13.10
2023-04-15T07:26:47.214Z,13.82
2023-04-15T07:29:14.187Z,11.65
2023-04-15T07:31:42.281Z,13.80
2023-04-15T07:34:09.391Z,14.43
2023-04-15T07:36:36.854Z,13.45
2023-04-15T07:39:04.505Z,17.50
2023-04-15T07:41:31.749Z,18.08
2023-04-15T07:43:59.003Z,14.68
2023-04-15T07:46:27.336Z,14.30
2023-04-15T07:48:54.465Z,16.65
2023-04-15T07:51:21.409Z,13.07
2023-04-15T07:53:49.556Z,15.57
2023-04-15T07:56:16.489Z,15.65
2023-04-15T07:58:43.853Z,16.33
2023-04-15T08:01:10.723Z,18.52
2023-04-15T08:03:37.873Z,16.50
2023-04-15T08:06:04.926Z,16.15
2023-04-15T08:08:32.116Z,14.65
2023-04-15T08:10:59.255Z,14.85
2023-04-15T08:13:27.091Z,16.35
2023-04-15T08:16:14.485Z,21.63
2023-04-15T08:18:41.907Z,14.90
2023-04-15T08:21:09.388Z,16.75
2023-04-15T08:23:36.488Z,15.15
2023-04-15T08:26:03.486Z,12.70
2023-04-15T08:28:30.772Z,14.07
2023-04-15T08:30:57.827Z,12.88
2023-04-15T08:33:24.660Z,13.05
2023-04-15T08:35:51.674Z,11.27
2023-04-15T08:38:18.984Z,12.40
2023-04-15T08:40:46.285Z,13.15
2023-04-15T08:43:20.186Z,13.75
2023-04-15T08:45:48.650Z,13.95
2023-04-15T08:48:17.027Z,12.95
2023-04-15T08:50:44.358Z,13.02
2023-04-15T08:53:11.963Z,11.00
2023-04-15T08:55:44.940Z,13.30
2023-04-15T08:58:12.823Z,13.50
2023-04-15T09:00:40.695Z,12.00
2023-04-15T09:03:08.913Z,12.95
2023-04-15T09:05:37.260Z,10.40
2023-04-15T09:08:05.665Z,9.95
2023-04-15T09:10:33.647Z,10.75
2023-04-15T09:13:02.075Z,10.27
2023-04-15T09:15:30.358Z,8.05
2023-04-15T09:17:57.376Z,11.45
2023-04-15T09:20:24.637Z,8.07
2023-04-15T09:22:56.144Z,8.75
2023-04-15T09:25:23.266Z,7.97
2023-04-15T09:27:56.302Z,7.03
2023-04-15T09:30:24.185Z,6.93
2023-04-15T09:32:57.144Z,6.65
2023-04-15T09:35:25.634Z,12.88
2023-04-15T09:37:53.359Z,6.18
2023-04-15T09:40:40.255Z,6.13
2023-04-15T09:43:09.791Z,6.00
2023-04-15T09:45:37.209Z,6.45
2023-04-15T09:48:21.785Z,5.32
2023-04-15T09:50:49.786Z,5.85
2023-04-15T09:53:26.582Z,5.97
2023-04-15T09:55:55.883Z,5.45
2023-04-15T09:58:30.328Z,5.13
2023-04-15T10:00:59.920Z,6.10
2023-04-15T10:03:29.573Z,5.47
2023-04-15T10:05:58.638Z,6.50
2023-04-15T10:08:28.281Z,6.45
2023-04-15T10:10:56.191Z,4.78
2023-04-15T10:13:28.813Z,6.38
2023-04-15T10:15:58.390Z,5.00
2023-04-15T10:18:31.636Z,5.63
2023-04-15T10:21:01.304Z,6.10
2023-04-15T10:23:28.863Z,7.63
2023-04-15T10:25:57.551Z,5.07
2023-04-15T10:28:24.951Z,5.45
2023-04-15T10:30:53.528Z,4.53
2023-04-15T10:33:23.668Z,6.15
2023-04-15T10:35:52.728Z,4.90
2023-04-15T10:38:37.559Z,5.40
2023-04-15T10:41:20.226Z,5.18
2023-04-15T10:44:04.512Z,4.32
2023-04-15T10:46:42.702Z,5.40
2023-04-15T10:49:16.157Z,4.20
2023-04-15T10:51:45.138Z,4.80
2023-04-15T10:54:33.309Z,3.90
2023-04-15T10:57:06.811Z,4.18
2023-04-15T10:59:37.876Z,3.60
2023-04-15T11:02:08.832Z,4.50
2023-04-15T11:05:00.087Z,3.58
2023-04-15T11:07:41.123Z,5.05
2023-04-15T11:10:13.901Z,4.43
2023-04-15T11:12:42.158Z,4.70
2023-04-15T11:15:31.116Z,4.07
2023-04-15T11:18:00.384Z,4.25
2023-04-15T11:20:27.536Z,5.33
2023-04-15T11:23:13.832Z,6.13
2023-04-15T11:25:43.196Z,3.45
2023-04-15T11:28:12.280Z,6.18
2023-04-15T11:30:40.612Z,4.53
2023-04-15T11:33:09.853Z,3.63
2023-04-15T11:35:37.304Z,4.50
2023-04-15T11:38:06.150Z,4.75
2023-04-15T11:40:35.887Z,3.08
2023-04-15T11:43:06.769Z,4.88
2023-04-15T11:45:33.952Z,5.10
2023-04-15T11:48:07.198Z,3.97
2023-04-15T11:50:36.090Z,5.40
2023-04-15T11:53:08.263Z,4.07
2023-04-15T11:56:02.403Z,6.30
2023-04-15T11:58:29.828Z,6.35
2023-04-15T12:01:01.503Z,5.00
2023-04-15T12:03:44.721Z,4.40
2023-04-15T12:06:28.226Z,4.85
2023-04-15T12:09:01.185Z,6.50
2023-04-15T12:11:31.290Z,5.57
2023-04-15T12:14:20.935Z,6.68
2023-04-15T12:22:04.719Z,7.47
2023-04-15T12:24:34.593Z,7.90
2023-04-15T12:29:32.332Z,12.15
2023-04-15T12:32:24.990Z,8.50
2023-04-15T12:34:54.496Z,9.00
2023-04-15T12:37:22.553Z,10.38
2023-04-15T12:39:50.634Z,11.73
2023-04-15T12:42:18.416Z,10.60
2023-04-15T12:44:45.848Z,8.13
2023-04-15T12:47:13.894Z,9.45
2023-04-15T12:49:43.912Z,11.32
2023-04-15T12:52:10.962Z,11.13
2023-04-15T12:54:38.473Z,9.98
2023-04-15T12:57:07.438Z,11.30
2023-04-15T12:59:36.049Z,15.40
2023-04-15T13:02:03.948Z,13.55
2023-04-15T13:04:32.924Z,14.25
2023-04-15T13:07:02.825Z,12.93
2023-04-15T13:09:30.087Z,11.35
2023-04-15T13:11:57.738Z,10.05
2023-04-15T13:14:24.794Z,11.90
2023-04-15T13:16:56.285Z,14.80
2023-04-15T13:19:23.559Z,13.35
2023-04-15T13:21:52.366Z,13.90
2023-04-15T13:24:19.516Z,14.27
2023-04-15T13:26:48.580Z,17.15
2023-04-15T13:29:18.851Z,11.15
2023-04-15T13:31:50.229Z,17.23
2023-04-15T13:34:17.564Z,19.92
2023-04-15T13:36:44.486Z,17.02
2023-04-15T13:39:11.408Z,16.40
2023-04-15T13:41:38.515Z,16.35
2023-04-15T13:44:08.053Z,18.42
2023-04-15T13:46:35.840Z,20.75
2023-04-15T13:49:02.923Z,16.55
2023-04-15T13:51:29.830Z,21.00
2023-04-15T13:53:58.204Z,16.55
2023-04-15T13:56:25.190Z,19.75
2023-04-15T13:58:55.070Z,12.95
2023-04-15T14:01:22.577Z,16.77
2023-04-15T14:03:49.666Z,15.20
2023-04-15T14:06:16.995Z,18.05
2023-04-15T14:08:44.078Z,16.90
2023-04-15T14:11:11.108Z,16.65
2023-04-15T14:13:38.329Z,19.17
2023-04-15T14:16:08.180Z,17.35
2023-04-15T14:18:40.652Z,16.92
2023-04-15T14:21:08.527Z,19.15
2023-04-15T14:23:35.825Z,19.05
2023-04-15T14:26:05.938Z,18.77
2023-04-15T14:28:33.027Z,19.15
2023-04-15T14:31:00.711Z,16.60
2023-04-15T14:33:30.271Z,17.27
2023-04-15T14:36:00.647Z,20.27
2023-04-15T14:38:28.202Z,18.90
2023-04-15T14:40:55.136Z,19.50
2023-04-15T14:43:22.235Z,19.92
2023-04-15T14:45:49.794Z,18.98
2023-04-15T14:48:17.189Z,23.40
2023-04-15T14:50:44.200Z,19.08
2023-04-15T14:53:11.602Z,20.70
2023-04-15T14:55:38.839Z,24.77
2023-04-15T14:58:08.342Z,22.27
2023-04-15T15:00:36.189Z,27.97
2023-04-15T15:03:04.119Z,18.73
2023-04-15T15:05:31.331Z,20.92
2023-04-15T15:07:58.697Z,20.85
2023-04-15T15:10:34.768Z,16.42
2023-04-15T15:13:13.724Z,17.88
2023-04-15T15:15:41.368Z,19.83
2023-04-15T15:18:08.398Z,21.67
2023-04-15T15:20:36.110Z,23.80
2023-04-15T15:23:06.985Z,18.23
2023-04-15T15:25:34.633Z,26.08
2023-04-15T15:28:01.779Z,27.35
2023-04-15T15:30:28.722Z,16.60
2023-04-15T15:32:57.592Z,23.52
2023-04-15T15:35:26.169Z,22.10
2023-04-15T15:37:53.431Z,22.67
2023-04-15T15:40:20.804Z,25.00
2023-04-15T15:42:51.033Z,26.98
2023-04-15T15:45:18.280Z,26.70
2023-04-15T15:47:45.396Z,34.45
2023-04-15T15:50:14.180Z,24.85
2023-04-15T15:52:41.661Z,27.95
2023-04-15T15:55:09.216Z,29.17
2023-04-15T15:57:36.793Z,27.90
2023-04-15T16:00:11.835Z,30.95
2023-04-15T16:05:12.589Z,39.13
2023-04-15T16:07:39.780Z,43.42
2023-04-15T16:10:07.544Z,38.10
2023-04-15T16:12:35.111Z,44.50
2023-04-15T16:15:03.052Z,49.83
2023-04-15T16:17:30.312Z,51.22
2023-04-15T16:20:00.679Z,51.60
2023-04-15T16:22:28.444Z,55.78
2023-04-15T16:24:55.969Z,53.58
2023-04-15T16:27:23.821Z,56.50
2023-04-15T16:29:51.030Z,45.75
2023-04-15T16:32:18.289Z,52.45
2023-04-15T16:34:46.477Z,52.33
2023-04-15T16:37:13.811Z,54.13
2023-04-15T16:39:41.610Z,49.00
2023-04-15T16:42:10.593Z,62.88
2023-04-15T16:44:37.704Z,57.67
2023-04-15T16:47:06.096Z,52.95
2023-04-15T16:49:36.145Z,55.08
2023-04-15T16:52:06.324Z,70.75
2023-04-15T16:54:36.306Z,56.05
2023-04-15T16:57:04.153Z,54.63
2023-04-15T16:59:31.870Z,52.85
2023-04-15T17:02:00.274Z,62.45
2023-04-15T17:04:28.634Z,53.03
2023-04-15T17:06:56.177Z,58.30
2023-04-15T17:09:23.419Z,54.08
2023-04-15T17:11:51.233Z,53.80
2023-04-15T17:14:21.243Z,52.22
2023-04-15T17:16:48.996Z,58.47
2023-04-15T17:19:16.359Z,52.08
2023-04-15T17:21:43.412Z,52.85
2023-04-15T17:24:11.226Z,59.70
2023-04-15T17:26:39.202Z,60.72
2023-04-15T17:29:06.684Z,56.13
2023-04-15T17:31:34.176Z,58.40
2023-04-15T17:34:08.936Z,62.83
2023-04-15T17:36:38.176Z,54.90
2023-04-15T17:39:06.195Z,54.88
2023-04-15T17:41:34.069Z,60.63
2023-04-15T17:44:01.605Z,53.17
2023-04-15T17:46:29.135Z,60.17
2023-04-15T17:48:56.461Z,58.97
2023-04-15T17:51:23.591Z,56.53
2023-04-15T17:54:07.631Z,61.72
2023-04-15T17:56:35.917Z,55.90
2023-04-15T17:59:03.947Z,62.45
2023-04-15T18:01:31.598Z,62.90
2023-04-15T18:03:59.090Z,68.88
2023-04-15T18:06:27.555Z,63.20
2023-04-15T18:08:55.342Z,59.35
2023-04-15T18:11:23.621Z,62.42
2023-04-15T18:13:50.940Z,67.70
2023-04-15T18:16:18.356Z,59.35
2023-04-15T18:18:46.278Z,65.70
2023-04-15T18:21:14.090Z,61.30
2023-04-15T18:23:41.989Z,69.90
2023-04-15T18:26:09.683Z,68.90
2023-04-15T18:28:40.538Z,61.30
2023-04-15T18:31:08.421Z,69.13
2023-04-15T18:33:36.474Z,64.97
2023-04-15T18:36:04.594Z,64.47
2023-04-15T18:38:32.040Z,58.65
2023-04-15T18:40:59.920Z,65.05
2023-04-15T18:43:28.207Z,65.22
2023-04-15T18:45:55.488Z,63.92
2023-04-15T18:48:28.861Z,58.78
2023-04-15T18:50:58.829Z,56.40
2023-04-15T18:53:25.975Z,58.35
2023-04-15T18:55:53.225Z,52.65
2023-04-15T18:58:20.673Z,55.38
2023-04-15T19:00:48.215Z,56.70
2023-04-15T19:03:16.098Z,60.05
2023-04-15T19:05:43.756Z,56.80
2023-04-15T19:08:11.118Z,54.53
2023-04-15T19:10:38.729Z,50.85
2023-04-15T19:13:06.990Z,47.97
2023-04-15T19:15:34.449Z,49.85
2023-04-15T19:18:02.190Z,43.72
2023-04-15T19:20:31.871Z,50.38
2023-04-15T19:22:59.866Z,42.50
2023-04-15T19:25:27.287Z,49.22
2023-04-15T19:27:54.268Z,49.60
2023-04-15T19:30:21.919Z,51.25
2023-04-15T19:32:49.547Z,50.83
2023-04-15T19:35:17.405Z,52.40
2023-04-15T19:37:45.064Z,46.40
2023-04-15T19:40:12.250Z,46.53
2023-04-15T19:42:39.503Z,50.05
2023-04-15T19:45:07.478Z,50.45
2023-04-15T19:47:34.836Z,53.42
2023-04-15T19:50:02.044Z,52.78
2023-04-15T19:52:29.343Z,58.38
2023-04-15T19:54:56.489Z,55.60
2023-04-15T19:57:23.643Z,53.65
2023-04-15T19:59:50.870Z,59.60
2023-04-15T20:02:18.005Z,54.88
2023-04-15T20:04:45.078Z,52.17
2023-04-15T20:07:12.065Z,53.42
2023-04-15T20:09:39.295Z,51.65
2023-04-15T20:12:49.611Z,55.80
2023-04-15T20:14:53.892Z,48.25
2023-04-15T20:17:20.922Z,49.78
2023-04-15T20:19:48.329Z,48.90
2023-04-15T20:22:16.149Z,49.25
2023-04-15T20:24:43.172Z,48.28
2023-04-15T20:27:10.114Z,57.97
2023-04-15T20:29:37.781Z,53.53
2023-04-15T20:32:04.992Z,48.65
2023-04-15T20:34:31.980Z,52.67
2023-04-15T20:36:58.840Z,61.65
2023-04-15T20:39:25.817Z,55.35
2023-04-15T20:41:52.796Z,53.58
2023-04-15T20:44:19.728Z,55.83
2023-04-15T20:46:46.726Z,47.63
2023-04-15T20:49:13.937Z,62.92
2023-04-15T20:51:40.941Z,56.78
2023-04-15T20:54:07.777Z,50.40
2023-04-15T20:56:34.814Z,52.00
2023-04-15T20:59:01.881Z,52.50
2023-04-15T21:01:28.896Z,54.60
2023-04-15T21:03:55.816Z,57.13
2023-04-15T21:06:22.786Z,55.13
2023-04-15T21:08:49.646Z,62.85
2023-04-15T21:11:28.404Z,56.05
2023-04-15T21:14:07.214Z,59.45
2023-04-15T21:16:34.186Z,55.95
2023-04-15T21:19:01.293Z,56.42
2023-04-15T21:21:28.513Z,61.78
2023-04-15T21:23:56.059Z,63.42
2023-04-15T21:26:23.117Z,61.03
2023-04-15T21:28:49.999Z,56.78
2023-04-15T21:31:16.891Z,54.60
2023-04-15T21:33:43.861Z,60.13
2023-04-15T21:36:10.913Z,61.88
2023-04-15T21:38:37.783Z,62.97
2023-04-15T21:41:09.710Z,62.05
2023-04-15T21:43:39.775Z,60.22
2023-04-15T21:46:22.838Z,62.75
2023-04-15T21:48:54.847Z,60.33
2023-04-15T21:51:21.921Z,67.15
2023-04-15T21:53:48.781Z,58.15
2023-04-15T21:56:15.950Z,58.60
2023-04-15T21:58:43.101Z,61.90
2023-04-15T22:01:10.187Z,54.60
2023-04-15T22:03:37.402Z,51.72
2023-04-15T22:06:04.718Z,55.60
2023-04-15T22:08:41.336Z,54.78
2023-04-15T22:11:30.326Z,61.47
2023-04-15T22:13:58.347Z,49.13
2023-04-15T22:16:26.555Z,51.45
2023-04-15T22:18:54.267Z,57.55
2023-04-15T22:21:21.238Z,57.65
2023-04-15T22:23:51.940Z,57.40
2023-04-15T22:26:18.931Z,58.58
2023-04-15T22:28:45.760Z,55.67
2023-04-15T22:31:13.721Z,53.38
2023-04-15T22:33:40.675Z,54.75
2023-04-15T22:36:07.621Z,57.60
2023-04-15T22:38:34.460Z,59.72
2023-04-15T22:41:01.642Z,55.03
2023-04-15T22:43:28.592Z,54.92
2023-04-15T22:45:55.670Z,52.67
2023-04-15T22:48:22.980Z,57.30
2023-04-15T22:50:50.253Z,56.78
2023-04-15T22:53:17.876Z,52.47
2023-04-15T22:55:46.692Z,55.08
2023-04-15T22:58:14.123Z,52.38
2023-04-15T23:00:41.036Z,61.50
2023-04-15T23:03:08.211Z,57.65
2023-04-15T23:05:35.228Z,54.95
2023-04-15T23:08:03.180Z,54.30
2023-04-15T23:10:30.069Z,56.15
2023-04-15T23:12:56.878Z,59.20
2023-04-15T23:15:23.836Z,52.27
2023-04-15T23:17:54.265Z,58.75
2023-04-15T23:20:21.204Z,55.83
2023-04-15T23:22:51.246Z,50.78
2023-04-15T23:25:20.509Z,52.10
2023-04-15T23:27:47.348Z,61.35
2023-04-15T23:30:15.092Z,54.97
2023-04-15T23:32:41.980Z,60.40
2023-04-15T23:35:09.386Z,55.40
2023-04-15T23:37:36.252Z,48.95
2023-04-15T23:40:03.171Z,56.42
2023-04-15T23:42:30.007Z,54.13
2023-04-15T23:44:56.882Z,55.17
2023-04-15T23:47:23.833Z,52.78
2023-04-15T23:49:50.826Z,52.20
2023-04-15T23:52:17.718Z,52.50
2023-04-15T23:54:44.708Z,48.50
2023-04-15T23:57:11.689Z,56.22
2023-04-15T23:59:38.784Z,46.30
